Cleghorn, Iowa
Current Conditions -  °F | °C
As of 2:55 PM on Friday 19 Dec 2014 (Local Time) from KCKP Reporting Station
Overcast Overcast  
Wind Chill: 24°   Ceiling: 1600
Heat Index: 33°   Visibility: 7mi
Dew Point: 29°   Wind: 12mph
Humidity: 86%   Direction: 200°SSW
Pressure: 30.14"   Gusts: 16mph
Location:  42.81°N, 95.71°W
Report Text: KCKP 192055Z AUTO 20010G14KT 7SM OVC016 01/M02 A3014 RMK AO2 T00051016
Loading
Personal Weather Stations






























Interactive Weather Map New forecast layout! Learn more

10-Day Weather Forecast

Advertisements
Track Severe Weather on mobile